sensor_id;sensor_type;location;lat;lon;timestamp;temperature;humidity
674;DHT22;319;48.764;9.174;2024-02-23T00:00:53;8.20;99.90
674;DHT22;319;48.764;9.174;2024-02-23T00:03:20;8.30;99.90
674;DHT22;319;48.764;9.174;2024-02-23T00:05:47;8.30;99.90
674;DHT22;319;48.764;9.174;2024-02-23T00:08:14;8.30;99.90
674;DHT22;319;48.764;9.174;2024-02-23T00:10:41;8.30;99.90
674;DHT22;319;48.764;9.174;2024-02-23T00:13:08;8.30;99.90
674;DHT22;319;48.764;9.174;2024-02-23T00:15:34;8.30;99.90
674;DHT22;319;48.764;9.174;2024-02-23T00:18:03;8.30;99.90
674;DHT22;319;48.764;9.174;2024-02-23T00:20:32;8.30;99.90
674;DHT22;319;48.764;9.174;2024-02-23T00:22:59;8.30;99.90
674;DHT22;319;48.764;9.174;2024-02-23T00:25:26;8.30;99.90
674;DHT22;319;48.764;9.174;2024-02-23T00:27:53;8.30;99.90
674;DHT22;319;48.764;9.174;2024-02-23T00:30:19;8.30;99.90
674;DHT22;319;48.764;9.174;2024-02-23T00:32:46;8.30;99.90
674;DHT22;319;48.764;9.174;2024-02-23T00:35:15;8.20;99.90
674;DHT22;319;48.764;9.174;2024-02-23T00:37:42;8.30;99.90
674;DHT22;319;48.764;9.174;2024-02-23T00:40:10;8.30;99.90
674;DHT22;319;48.764;9.174;2024-02-23T00:42:37;8.30;99.90
674;DHT22;319;48.764;9.174;2024-02-23T00:45:05;8.40;99.90
674;DHT22;319;48.764;9.174;2024-02-23T00:47:32;8.50;99.90
674;DHT22;319;48.764;9.174;2024-02-23T00:50:00;8.50;99.90
674;DHT22;319;48.764;9.174;2024-02-23T00:52:29;8.50;99.90
674;DHT22;319;48.764;9.174;2024-02-23T00:54:56;8.50;99.90
674;DHT22;319;48.764;9.174;2024-02-23T00:57:23;8.60;99.90
674;DHT22;319;48.764;9.174;2024-02-23T00:59:55;8.50;99.90
674;DHT22;319;48.764;9.174;2024-02-23T01:02:22;8.60;99.90
674;DHT22;319;48.764;9.174;2024-02-23T01:04:49;8.60;99.90
674;DHT22;319;48.764;9.174;2024-02-23T01:07:16;8.60;99.90
674;DHT22;319;48.764;9.174;2024-02-23T01:09:44;8.60;99.90
674;DHT22;319;48.764;9.174;2024-02-23T01:12:11;8.60;99.90
674;DHT22;319;48.764;9.174;2024-02-23T01:14:38;8.70;99.90
674;DHT22;319;48.764;9.174;2024-02-23T01:17:04;8.70;99.90
674;DHT22;319;48.764;9.174;2024-02-23T01:19:31;8.80;99.90
674;DHT22;319;48.764;9.174;2024-02-23T01:21:58;8.70;99.90
674;DHT22;319;48.764;9.174;2024-02-23T01:24:26;8.70;99.90
674;DHT22;319;48.764;9.174;2024-02-23T01:26:56;8.70;99.90
674;DHT22;319;48.764;9.174;2024-02-23T01:29:24;8.70;99.90
674;DHT22;319;48.764;9.174;2024-02-23T01:31:51;8.60;99.90
674;DHT22;319;48.764;9.174;2024-02-23T01:34:19;8.60;99.90
674;DHT22;319;48.764;9.174;2024-02-23T01:36:47;8.50;99.90
674;DHT22;319;48.764;9.174;2024-02-23T01:39:13;8.60;99.90
674;DHT22;319;48.764;9.174;2024-02-23T01:41:40;8.50;99.90
674;DHT22;319;48.764;9.174;2024-02-23T01:44:11;8.50;99.90
674;DHT22;319;48.764;9.174;2024-02-23T01:46:37;8.50;99.90
674;DHT22;319;48.764;9.174;2024-02-23T01:49:05;8.50;99.90
674;DHT22;319;48.764;9.174;2024-02-23T01:51:33;8.50;99.90
674;DHT22;319;48.764;9.174;2024-02-23T01:54:01;8.60;99.90
674;DHT22;319;48.764;9.174;2024-02-23T01:56:28;8.60;99.90
674;DHT22;319;48.764;9.174;2024-02-23T01:58:55;8.70;99.90
674;DHT22;319;48.764;9.174;2024-02-23T02:01:23;8.70;99.90
674;DHT22;319;48.764;9.174;2024-02-23T02:03:50;8.70;99.90
674;DHT22;319;48.764;9.174;2024-02-23T02:06:17;8.70;99.90
674;DHT22;319;48.764;9.174;2024-02-23T02:08:45;8.80;99.90
674;DHT22;319;48.764;9.174;2024-02-23T02:11:13;8.80;99.90
674;DHT22;319;48.764;9.174;2024-02-23T02:13:40;8.70;99.90
674;DHT22;319;48.764;9.174;2024-02-23T02:16:07;8.70;99.90
674;DHT22;319;48.764;9.174;2024-02-23T02:18:36;8.80;99.90
674;DHT22;319;48.764;9.174;2024-02-23T02:21:03;8.80;99.90
674;DHT22;319;48.764;9.174;2024-02-23T02:23:30;8.80;99.90
674;DHT22;319;48.764;9.174;2024-02-23T02:25:58;8.80;99.90
674;DHT22;319;48.764;9.174;2024-02-23T02:28:25;8.90;99.90
674;DHT22;319;48.764;9.174;2024-02-23T02:30:52;8.80;99.90
674;DHT22;319;48.764;9.174;2024-02-23T02:33:19;8.80;99.90
674;DHT22;319;48.764;9.174;2024-02-23T02:35:48;8.80;99.90
674;DHT22;319;48.764;9.174;2024-02-23T02:38:15;8.80;99.90
674;DHT22;319;48.764;9.174;2024-02-23T02:40:42;8.70;99.90
674;DHT22;319;48.764;9.174;2024-02-23T02:43:09;8.80;99.90
674;DHT22;319;48.764;9.174;2024-02-23T02:45:36;8.70;99.90
674;DHT22;319;48.764;9.174;2024-02-23T02:48:03;8.70;99.90
674;DHT22;319;48.764;9.174;2024-02-23T02:50:30;8.60;99.90
674;DHT22;319;48.764;9.174;2024-02-23T02:52:57;8.60;99.90
674;DHT22;319;48.764;9.174;2024-02-23T02:55:24;8.60;99.90
674;DHT22;319;48.764;9.174;2024-02-23T02:57:51;8.60;99.90
674;DHT22;319;48.764;9.174;2024-02-23T03:00:18;8.60;99.90
674;DHT22;319;48.764;9.174;2024-02-23T03:02:45;8.60;99.90
674;DHT22;319;48.764;9.174;2024-02-23T03:05:12;8.60;99.90
674;DHT22;319;48.764;9.174;2024-02-23T03:07:39;8.60;99.90
674;DHT22;319;48.764;9.174;2024-02-23T03:10:07;8.60;99.90
674;DHT22;319;48.764;9.174;2024-02-23T03:12:34;8.50;99.90
674;DHT22;319;48.764;9.174;2024-02-23T03:15:01;8.60;99.90
674;DHT22;319;48.764;9.174;2024-02-23T03:17:29;8.60;99.80
674;DHT22;319;48.764;9.174;2024-02-23T03:19:56;8.60;99.70
674;DHT22;319;48.764;9.174;2024-02-23T03:22:23;8.60;99.40
674;DHT22;319;48.764;9.174;2024-02-23T03:24:53;8.60;99.10
674;DHT22;319;48.764;9.174;2024-02-23T03:27:26;8.60;99.00
674;DHT22;319;48.764;9.174;2024-02-23T03:29:54;8.60;99.00
674;DHT22;319;48.764;9.174;2024-02-23T03:32:20;8.60;98.30
674;DHT22;319;48.764;9.174;2024-02-23T03:34:47;8.60;98.20
674;DHT22;319;48.764;9.174;2024-02-23T03:37:14;8.60;98.10
674;DHT22;319;48.764;9.174;2024-02-23T03:39:41;8.60;97.90
674;DHT22;319;48.764;9.174;2024-02-23T03:42:08;8.60;97.80
674;DHT22;319;48.764;9.174;2024-02-23T03:44:36;8.70;97.80
674;DHT22;319;48.764;9.174;2024-02-23T03:47:03;8.60;97.20
674;DHT22;319;48.764;9.174;2024-02-23T03:49:30;8.60;97.20
674;DHT22;319;48.764;9.174;2024-02-23T03:51:57;8.60;97.40
674;DHT22;319;48.764;9.174;2024-02-23T03:54:24;8.50;97.60
674;DHT22;319;48.764;9.174;2024-02-23T03:56:51;8.50;97.10
674;DHT22;319;48.764;9.174;2024-02-23T03:59:17;8.50;97.50
674;DHT22;319;48.764;9.174;2024-02-23T04:01:46;8.50;97.30
674;DHT22;319;48.764;9.174;2024-02-23T04:04:12;8.50;97.40
674;DHT22;319;48.764;9.174;2024-02-23T04:06:39;8.50;98.00
674;DHT22;319;48.764;9.174;2024-02-23T04:09:06;8.50;97.50
674;DHT22;319;48.764;9.174;2024-02-23T04:11:34;8.50;97.00
674;DHT22;319;48.764;9.174;2024-02-23T04:14:01;8.40;96.80
674;DHT22;319;48.764;9.174;2024-02-23T04:16:31;8.50;96.70
674;DHT22;319;48.764;9.174;2024-02-23T04:18:59;8.50;96.80
674;DHT22;319;48.764;9.174;2024-02-23T04:21:26;8.40;96.40
674;DHT22;319;48.764;9.174;2024-02-23T04:23:53;8.40;96.20
674;DHT22;319;48.764;9.174;2024-02-23T04:26:20;8.30;96.40
674;DHT22;319;48.764;9.174;2024-02-23T04:28:47;8.30;96.50
674;DHT22;319;48.764;9.174;2024-02-23T04:31:14;8.30;96.80
674;DHT22;319;48.764;9.174;2024-02-23T04:33:41;8.30;96.60
674;DHT22;319;48.764;9.174;2024-02-23T04:36:09;8.40;96.70
674;DHT22;319;48.764;9.174;2024-02-23T04:38:36;8.30;96.40
674;DHT22;319;48.764;9.174;2024-02-23T04:41:03;8.30;96.00
674;DHT22;319;48.764;9.174;2024-02-23T04:43:31;8.30;96.20
674;DHT22;319;48.764;9.174;2024-02-23T04:45:58;8.20;96.40
674;DHT22;319;48.764;9.174;2024-02-23T04:48:25;8.30;96.00
674;DHT22;319;48.764;9.174;2024-02-23T04:50:52;8.20;95.90
674;DHT22;319;48.764;9.174;2024-02-23T04:53:20;8.30;96.00
674;DHT22;319;48.764;9.174;2024-02-23T04:55:47;8.20;95.80
674;DHT22;319;48.764;9.174;2024-02-23T04:58:14;8.20;95.70
674;DHT22;319;48.764;9.174;2024-02-23T05:00:41;8.20;95.80
674;DHT22;319;48.764;9.174;2024-02-23T05:03:08;8.20;95.90
674;DHT22;319;48.764;9.174;2024-02-23T05:05:35;8.20;96.30
674;DHT22;319;48.764;9.174;2024-02-23T05:08:03;8.20;96.30
674;DHT22;319;48.764;9.174;2024-02-23T05:10:31;8.20;96.10
674;DHT22;319;48.764;9.174;2024-02-23T05:12:58;8.20;96.20
674;DHT22;319;48.764;9.174;2024-02-23T05:15:24;8.20;96.30
674;DHT22;319;48.764;9.174;2024-02-23T05:17:51;8.20;96.70
674;DHT22;319;48.764;9.174;2024-02-23T05:20:18;8.20;96.80
674;DHT22;319;48.764;9.174;2024-02-23T05:22:45;8.10;96.80
674;DHT22;319;48.764;9.174;2024-02-23T05:25:12;8.10;97.00
674;DHT22;319;48.764;9.174;2024-02-23T05:27:41;8.20;97.00
674;DHT22;319;48.764;9.174;2024-02-23T05:30:08;8.20;96.60
674;DHT22;319;48.764;9.174;2024-02-23T05:32:36;8.10;96.40
674;DHT22;319;48.764;9.174;2024-02-23T05:35:06;8.10;96.50
674;DHT22;319;48.764;9.174;2024-02-23T05:37:34;8.10;96.30
674;DHT22;319;48.764;9.174;2024-02-23T05:40:01;8.00;96.20
674;DHT22;319;48.764;9.174;2024-02-23T05:42:32;8.00;96.40
674;DHT22;319;48.764;9.174;2024-02-23T05:45:01;8.00;96.40
674;DHT22;319;48.764;9.174;2024-02-23T05:47:30;8.00;96.40
674;DHT22;319;48.764;9.174;2024-02-23T05:49:57;8.00;96.50
674;DHT22;319;48.764;9.174;2024-02-23T05:52:24;8.00;96.50
674;DHT22;319;48.764;9.174;2024-02-23T05:54:50;7.90;96.60
674;DHT22;319;48.764;9.174;2024-02-23T05:57:19;7.90;96.90
674;DHT22;319;48.764;9.174;2024-02-23T05:59:46;7.70;97.00
674;DHT22;319;48.764;9.174;2024-02-23T06:02:14;7.70;96.90
674;DHT22;319;48.764;9.174;2024-02-23T06:04:41;7.60;97.20
674;DHT22;319;48.764;9.174;2024-02-23T06:07:08;7.50;97.40
674;DHT22;319;48.764;9.174;2024-02-23T06:09:35;7.50;97.80
674;DHT22;319;48.764;9.174;2024-02-23T06:12:03;7.40;98.20
674;DHT22;319;48.764;9.174;2024-02-23T06:14:30;7.30;98.60
674;DHT22;319;48.764;9.174;2024-02-23T06:16:57;7.30;99.10
674;DHT22;319;48.764;9.174;2024-02-23T06:19:25;7.40;98.90
674;DHT22;319;48.764;9.174;2024-02-23T06:21:52;7.40;98.80
674;DHT22;319;48.764;9.174;2024-02-23T06:24:19;7.40;99.00
674;DHT22;319;48.764;9.174;2024-02-23T06:26:47;7.40;99.30
674;DHT22;319;48.764;9.174;2024-02-23T06:29:16;7.40;99.70
674;DHT22;319;48.764;9.174;2024-02-23T06:31:43;7.40;99.90
674;DHT22;319;48.764;9.174;2024-02-23T06:34:14;7.40;99.90
674;DHT22;319;48.764;9.174;2024-02-23T06:36:43;7.40;99.90
674;DHT22;319;48.764;9.174;2024-02-23T06:39:10;7.40;99.90
674;DHT22;319;48.764;9.174;2024-02-23T06:41:37;7.40;99.90
674;DHT22;319;48.764;9.174;2024-02-23T06:44:05;7.30;99.90
674;DHT22;319;48.764;9.174;2024-02-23T06:46:32;7.30;99.90
674;DHT22;319;48.764;9.174;2024-02-23T06:48:59;7.30;99.90
674;DHT22;319;48.764;9.174;2024-02-23T06:51:26;7.30;99.90
674;DHT22;319;48.764;9.174;2024-02-23T06:53:54;7.30;99.90
674;DHT22;319;48.764;9.174;2024-02-23T06:56:22;7.30;99.90
674;DHT22;319;48.764;9.174;2024-02-23T06:58:49;7.20;99.90
674;DHT22;319;48.764;9.174;2024-02-23T07:01:16;7.20;99.90
674;DHT22;319;48.764;9.174;2024-02-23T07:03:42;7.30;99.90
674;DHT22;319;48.764;9.174;2024-02-23T07:06:10;7.30;99.90
674;DHT22;319;48.764;9.174;2024-02-23T07:08:38;7.40;99.90
674;DHT22;319;48.764;9.174;2024-02-23T07:11:06;7.50;99.90
674;DHT22;319;48.764;9.174;2024-02-23T07:13:33;7.60;99.90
674;DHT22;319;48.764;9.174;2024-02-23T07:16:00;7.60;99.90
674;DHT22;319;48.764;9.174;2024-02-23T07:18:27;7.70;99.90
674;DHT22;319;48.764;9.174;2024-02-23T07:20:54;7.80;99.90
674;DHT22;319;48.764;9.174;2024-02-23T07:23:21;7.80;99.90
674;DHT22;319;48.764;9.174;2024-02-23T07:25:49;7.90;99.90
674;DHT22;319;48.764;9.174;2024-02-23T07:28:18;7.90;99.90
674;DHT22;319;48.764;9.174;2024-02-23T07:30:46;7.90;99.90
674;DHT22;319;48.764;9.174;2024-02-23T07:33:13;8.00;99.90
674;DHT22;319;48.764;9.174;2024-02-23T07:35:40;8.10;99.90
674;DHT22;319;48.764;9.174;2024-02-23T07:38:08;8.20;99.90
674;DHT22;319;48.764;9.174;2024-02-23T07:40:35;8.30;99.90
674;DHT22;319;48.764;9.174;2024-02-23T07:43:03;8.40;99.90
674;DHT22;319;48.764;9.174;2024-02-23T07:45:31;8.50;99.90
674;DHT22;319;48.764;9.174;2024-02-23T07:48:00;8.60;99.90
674;DHT22;319;48.764;9.174;2024-02-23T07:50:26;8.60;99.60
674;DHT22;319;48.764;9.174;2024-02-23T07:52:53;8.60;99.30
674;DHT22;319;48.764;9.174;2024-02-23T07:55:20;8.70;98.90
674;DHT22;319;48.764;9.174;2024-02-23T07:57:47;8.60;98.80
674;DHT22;319;48.764;9.174;2024-02-23T08:00:15;8.60;98.80
674;DHT22;319;48.764;9.174;2024-02-23T08:02:43;8.50;98.60
674;DHT22;319;48.764;9.174;2024-02-23T08:05:11;8.50;98.70
674;DHT22;319;48.764;9.174;2024-02-23T08:07:38;8.50;98.70
674;DHT22;319;48.764;9.174;2024-02-23T08:10:05;8.40;98.70
674;DHT22;319;48.764;9.174;2024-02-23T08:12:32;8.30;99.00
674;DHT22;319;48.764;9.174;2024-02-23T08:14:59;8.30;99.30
674;DHT22;319;48.764;9.174;2024-02-23T08:17:26;8.40;99.30
674;DHT22;319;48.764;9.174;2024-02-23T08:19:55;8.40;99.10
674;DHT22;319;48.764;9.174;2024-02-23T08:22:21;8.50;99.10
674;DHT22;319;48.764;9.174;2024-02-23T08:24:49;8.50;98.80
674;DHT22;319;48.764;9.174;2024-02-23T08:27:15;8.50;98.60
674;DHT22;319;48.764;9.174;2024-02-23T08:29:42;8.50;98.60
674;DHT22;319;48.764;9.174;2024-02-23T08:32:09;8.60;98.60
674;DHT22;319;48.764;9.174;2024-02-23T08:34:36;8.80;98.20
674;DHT22;319;48.764;9.174;2024-02-23T08:37:05;8.90;98.00
674;DHT22;319;48.764;9.174;2024-02-23T08:39:32;8.80;97.50
674;DHT22;319;48.764;9.174;2024-02-23T08:41:59;8.90;97.20
674;DHT22;319;48.764;9.174;2024-02-23T08:44:26;8.90;97.20
674;DHT22;319;48.764;9.174;2024-02-23T08:46:54;8.90;97.00
674;DHT22;319;48.764;9.174;2024-02-23T08:49:21;8.80;96.60
674;DHT22;319;48.764;9.174;2024-02-23T08:51:48;8.70;96.60
674;DHT22;319;48.764;9.174;2024-02-23T08:54:17;8.70;96.60
674;DHT22;319;48.764;9.174;2024-02-23T08:56:44;8.60;96.50
674;DHT22;319;48.764;9.174;2024-02-23T08:59:11;8.50;96.50
674;DHT22;319;48.764;9.174;2024-02-23T09:01:38;8.50;96.40
674;DHT22;319;48.764;9.174;2024-02-23T09:04:04;8.50;96.40
674;DHT22;319;48.764;9.174;2024-02-23T09:06:33;8.50;96.30
674;DHT22;319;48.764;9.174;2024-02-23T09:08:59;8.60;96.30
674;DHT22;319;48.764;9.174;2024-02-23T09:11:28;8.60;96.20
674;DHT22;319;48.764;9.174;2024-02-23T09:13:54;8.70;96.40
674;DHT22;319;48.764;9.174;2024-02-23T09:16:21;8.90;96.20
674;DHT22;319;48.764;9.174;2024-02-23T09:18:50;8.90;95.50
674;DHT22;319;48.764;9.174;2024-02-23T09:21:17;8.90;95.50
674;DHT22;319;48.764;9.174;2024-02-23T09:23:44;8.80;95.40
674;DHT22;319;48.764;9.174;2024-02-23T09:26:11;8.80;95.40
674;DHT22;319;48.764;9.174;2024-02-23T09:28:42;8.80;95.70
674;DHT22;319;48.764;9.174;2024-02-23T09:31:10;8.90;95.20
674;DHT22;319;48.764;9.174;2024-02-23T09:33:37;8.90;95.20
674;DHT22;319;48.764;9.174;2024-02-23T09:36:05;9.00;95.10
674;DHT22;319;48.764;9.174;2024-02-23T09:38:32;9.10;95.00
674;DHT22;319;48.764;9.174;2024-02-23T09:40:58;9.20;94.50
674;DHT22;319;48.764;9.174;2024-02-23T09:43:29;9.20;94.40
674;DHT22;319;48.764;9.174;2024-02-23T09:45:59;9.30;94.20
674;DHT22;319;48.764;9.174;2024-02-23T09:48:30;9.30;94.00
674;DHT22;319;48.764;9.174;2024-02-23T09:50:59;9.50;94.00
674;DHT22;319;48.764;9.174;2024-02-23T09:53:27;9.40;93.60
674;DHT22;319;48.764;9.174;2024-02-23T09:55:55;9.50;93.50
674;DHT22;319;48.764;9.174;2024-02-23T09:58:23;9.60;93.20
674;DHT22;319;48.764;9.174;2024-02-23T10:00:52;9.70;93.10
674;DHT22;319;48.764;9.174;2024-02-23T10:03:21;9.70;93.10
674;DHT22;319;48.764;9.174;2024-02-23T10:05:51;9.80;93.40
674;DHT22;319;48.764;9.174;2024-02-23T10:11:18;10.00;92.70
674;DHT22;319;48.764;9.174;2024-02-23T10:13:46;9.90;93.20
674;DHT22;319;48.764;9.174;2024-02-23T10:16:15;9.80;92.50
674;DHT22;319;48.764;9.174;2024-02-23T10:18:43;9.60;92.40
674;DHT22;319;48.764;9.174;2024-02-23T10:21:10;9.50;92.70
674;DHT22;319;48.764;9.174;2024-02-23T10:23:37;9.60;92.80
674;DHT22;319;48.764;9.174;2024-02-23T10:26:08;9.70;92.90
674;DHT22;319;48.764;9.174;2024-02-23T10:28:42;9.90;92.50
674;DHT22;319;48.764;9.174;2024-02-23T10:31:09;9.90;92.20
674;DHT22;319;48.764;9.174;2024-02-23T10:33:36;9.80;92.30
674;DHT22;319;48.764;9.174;2024-02-23T10:36:09;9.90;92.00
674;DHT22;319;48.764;9.174;2024-02-23T10:38:44;10.10;91.50
674;DHT22;319;48.764;9.174;2024-02-23T10:41:13;10.20;91.10
674;DHT22;319;48.764;9.174;2024-02-23T10:43:43;10.00;90.70
674;DHT22;319;48.764;9.174;2024-02-23T10:46:13;10.10;91.10
674;DHT22;319;48.764;9.174;2024-02-23T10:48:41;10.10;90.90
674;DHT22;319;48.764;9.174;2024-02-23T10:51:10;10.10;90.80
674;DHT22;319;48.764;9.174;2024-02-23T10:53:42;10.20;90.90
674;DHT22;319;48.764;9.174;2024-02-23T10:56:12;10.40;91.10
674;DHT22;319;48.764;9.174;2024-02-23T10:58:39;10.60;90.70
674;DHT22;319;48.764;9.174;2024-02-23T11:01:07;10.60;90.10
674;DHT22;319;48.764;9.174;2024-02-23T11:03:37;10.60;90.00
674;DHT22;319;48.764;9.174;2024-02-23T11:06:06;10.50;89.80
674;DHT22;319;48.764;9.174;2024-02-23T11:08:34;10.50;90.10
674;DHT22;319;48.764;9.174;2024-02-23T11:11:07;10.60;90.30
674;DHT22;319;48.764;9.174;2024-02-23T11:13:35;10.70;89.90
674;DHT22;319;48.764;9.174;2024-02-23T11:16:03;10.70;89.20
674;DHT22;319;48.764;9.174;2024-02-23T11:18:30;10.70;90.10
674;DHT22;319;48.764;9.174;2024-02-23T11:21:00;10.80;89.00
674;DHT22;319;48.764;9.174;2024-02-23T11:23:40;10.50;87.50
674;DHT22;319;48.764;9.174;2024-02-23T11:26:09;10.50;88.10
674;DHT22;319;48.764;9.174;2024-02-23T11:28:48;10.40;89.30
674;DHT22;319;48.764;9.174;2024-02-23T11:33:49;10.70;99.90
674;DHT22;319;48.764;9.174;2024-02-23T11:36:27;10.60;92.70
674;DHT22;319;48.764;9.174;2024-02-23T11:38:57;10.60;92.90
674;DHT22;319;48.764;9.174;2024-02-23T11:41:24;10.60;88.90
674;DHT22;319;48.764;9.174;2024-02-23T11:43:52;10.60;89.90
674;DHT22;319;48.764;9.174;2024-02-23T11:46:21;10.70;88.40
674;DHT22;319;48.764;9.174;2024-02-23T11:48:51;10.70;88.20
674;DHT22;319;48.764;9.174;2024-02-23T11:51:20;10.80;88.00
674;DHT22;319;48.764;9.174;2024-02-23T11:53:48;10.90;87.90
674;DHT22;319;48.764;9.174;2024-02-23T11:56:18;10.90;88.10
674;DHT22;319;48.764;9.174;2024-02-23T11:58:49;11.10;99.90
674;DHT22;319;48.764;9.174;2024-02-23T12:03:43;10.70;86.10
674;DHT22;319;48.764;9.174;2024-02-23T12:06:10;10.90;90.00
674;DHT22;319;48.764;9.174;2024-02-23T12:08:38;10.90;99.90
674;DHT22;319;48.764;9.174;2024-02-23T12:13:35;11.10;88.10
674;DHT22;319;48.764;9.174;2024-02-23T12:16:02;11.30;86.70
674;DHT22;319;48.764;9.174;2024-02-23T12:20:59;11.20;99.90
674;DHT22;319;48.764;9.174;2024-02-23T12:23:27;11.50;99.90
674;DHT22;319;48.764;9.174;2024-02-23T12:25:55;11.10;99.90
674;DHT22;319;48.764;9.174;2024-02-23T12:28:23;11.30;99.90
674;DHT22;319;48.764;9.174;2024-02-23T12:31:00;11.40;91.60
674;DHT22;319;48.764;9.174;2024-02-23T12:33:28;11.30;99.90
674;DHT22;319;48.764;9.174;2024-02-23T12:40:50;11.50;89.50
674;DHT22;319;48.764;9.174;2024-02-23T12:43:18;11.70;85.00
674;DHT22;319;48.764;9.174;2024-02-23T12:45:47;11.50;99.90
674;DHT22;319;48.764;9.174;2024-02-23T12:48:17;11.50;99.90
674;DHT22;319;48.764;9.174;2024-02-23T12:50:44;11.50;89.40
674;DHT22;319;48.764;9.174;2024-02-23T12:53:30;11.70;91.20
674;DHT22;319;48.764;9.174;2024-02-23T12:58:25;11.50;99.90
674;DHT22;319;48.764;9.174;2024-02-23T13:00:52;11.70;99.90
674;DHT22;319;48.764;9.174;2024-02-23T13:03:20;11.40;91.30
674;DHT22;319;48.764;9.174;2024-02-23T13:10:43;11.10;93.30
674;DHT22;319;48.764;9.174;2024-02-23T13:13:10;11.30;99.90
674;DHT22;319;48.764;9.174;2024-02-23T13:18:05;11.40;99.90
674;DHT22;319;48.764;9.174;2024-02-23T13:20:34;11.50;99.90
674;DHT22;319;48.764;9.174;2024-02-23T13:23:06;11.10;92.70
674;DHT22;319;48.764;9.174;2024-02-23T13:32:56;11.40;99.90
674;DHT22;319;48.764;9.174;2024-02-23T13:37:51;11.30;99.90
674;DHT22;319;48.764;9.174;2024-02-23T13:47:44;11.20;93.60
674;DHT22;319;48.764;9.174;2024-02-23T13:52:49;11.40;99.90
674;DHT22;319;48.764;9.174;2024-02-23T13:55:17;12.80;93.30
674;DHT22;319;48.764;9.174;2024-02-23T14:00:14;11.70;99.90
674;DHT22;319;48.764;9.174;2024-02-23T14:12:31;11.10;92.00
674;DHT22;319;48.764;9.174;2024-02-23T14:22:20;11.80;99.90
674;DHT22;319;48.764;9.174;2024-02-23T14:32:17;11.30;99.90
674;DHT22;319;48.764;9.174;2024-02-23T14:37:11;11.20;99.90
674;DHT22;319;48.764;9.174;2024-02-23T14:39:48;11.10;92.40
674;DHT22;319;48.764;9.174;2024-02-23T14:47:11;11.00;99.90
674;DHT22;319;48.764;9.174;2024-02-23T14:49:38;11.40;99.90
674;DHT22;319;48.764;9.174;2024-02-23T14:54:32;11.40;99.90
674;DHT22;319;48.764;9.174;2024-02-23T14:56:59;11.30;99.90
674;DHT22;319;48.764;9.174;2024-02-23T14:59:26;11.40;99.90
674;DHT22;319;48.764;9.174;2024-02-23T15:01:53;11.40;99.90
674;DHT22;319;48.764;9.174;2024-02-23T15:04:21;11.40;99.90
674;DHT22;319;48.764;9.174;2024-02-23T15:14:10;10.90;99.90
674;DHT22;319;48.764;9.174;2024-02-23T15:21:37;11.20;99.90
674;DHT22;319;48.764;9.174;2024-02-23T15:29:01;11.20;99.90
674;DHT22;319;48.764;9.174;2024-02-23T15:33:59;11.20;99.90
674;DHT22;319;48.764;9.174;2024-02-23T15:38:56;11.40;99.90
674;DHT22;319;48.764;9.174;2024-02-23T15:43:53;11.30;99.90
674;DHT22;319;48.764;9.174;2024-02-23T15:46:23;11.60;92.20
674;DHT22;319;48.764;9.174;2024-02-23T15:48:51;11.10;99.90
674;DHT22;319;48.764;9.174;2024-02-23T15:58:42;10.90;99.90
674;DHT22;319;48.764;9.174;2024-02-23T16:03:35;11.00;99.90
674;DHT22;319;48.764;9.174;2024-02-23T16:06:02;11.30;99.90
674;DHT22;319;48.764;9.174;2024-02-23T16:08:39;11.10;99.90
674;DHT22;319;48.764;9.174;2024-02-23T16:11:08;11.00;99.90
674;DHT22;319;48.764;9.174;2024-02-23T16:16:05;11.10;99.90
674;DHT22;319;48.764;9.174;2024-02-23T16:18:33;11.00;99.90
674;DHT22;319;48.764;9.174;2024-02-23T16:21:00;11.00;99.90
674;DHT22;319;48.764;9.174;2024-02-23T16:28:22;10.80;99.90
674;DHT22;319;48.764;9.174;2024-02-23T16:30:50;10.80;99.90
674;DHT22;319;48.764;9.174;2024-02-23T16:33:17;10.60;99.90
674;DHT22;319;48.764;9.174;2024-02-23T16:35:44;10.70;99.90
674;DHT22;319;48.764;9.174;2024-02-23T16:38:11;10.40;99.90
674;DHT22;319;48.764;9.174;2024-02-23T16:40:38;10.40;99.90
674;DHT22;319;48.764;9.174;2024-02-23T16:43:06;10.40;99.90
674;DHT22;319;48.764;9.174;2024-02-23T16:45:33;10.20;99.90
674;DHT22;319;48.764;9.174;2024-02-23T16:48:01;10.50;99.90
674;DHT22;319;48.764;9.174;2024-02-23T16:50:34;10.20;99.90
674;DHT22;319;48.764;9.174;2024-02-23T16:53:01;10.30;99.90
674;DHT22;319;48.764;9.174;2024-02-23T16:55:28;10.30;99.90
674;DHT22;319;48.764;9.174;2024-02-23T16:57:55;10.50;99.90
674;DHT22;319;48.764;9.174;2024-02-23T17:00:23;10.10;99.90
674;DHT22;319;48.764;9.174;2024-02-23T17:05:19;10.30;99.90
674;DHT22;319;48.764;9.174;2024-02-23T17:12:43;9.80;99.90
674;DHT22;319;48.764;9.174;2024-02-23T17:15:13;10.00;99.90
674;DHT22;319;48.764;9.174;2024-02-23T17:17:40;10.30;99.90
674;DHT22;319;48.764;9.174;2024-02-23T17:20:08;10.00;99.90
674;DHT22;319;48.764;9.174;2024-02-23T17:22:39;10.20;99.90
674;DHT22;319;48.764;9.174;2024-02-23T17:30:02;9.80;99.90
674;DHT22;319;48.764;9.174;2024-02-23T17:32:32;9.80;99.20
674;DHT22;319;48.764;9.174;2024-02-23T17:34:59;10.00;99.90
674;DHT22;319;48.764;9.174;2024-02-23T17:39:55;9.70;98.80
674;DHT22;319;48.764;9.174;2024-02-23T18:12:04;9.20;97.00
674;DHT22;319;48.764;9.174;2024-02-23T18:46:41;8.40;99.90
674;DHT22;319;48.764;9.174;2024-02-23T18:49:09;8.30;98.20
674;DHT22;319;48.764;9.174;2024-02-23T19:49:20;7.50;99.90
674;DHT22;319;48.764;9.174;2024-02-23T19:51:47;7.50;99.90
674;DHT22;319;48.764;9.174;2024-02-23T19:57:49;7.30;99.90
674;DHT22;319;48.764;9.174;2024-02-23T20:00:22;7.50;99.90
674;DHT22;319;48.764;9.174;2024-02-23T20:18:12;7.40;99.90
674;DHT22;319;48.764;9.174;2024-02-23T20:20:42;7.30;99.90
674;DHT22;319;48.764;9.174;2024-02-23T20:25:47;7.00;99.90
674;DHT22;319;48.764;9.174;2024-02-23T20:28:18;7.30;99.90
674;DHT22;319;48.764;9.174;2024-02-23T20:35:49;7.20;99.90
674;DHT22;319;48.764;9.174;2024-02-23T20:38:18;7.20;99.90
674;DHT22;319;48.764;9.174;2024-02-23T20:45:43;7.30;99.90
674;DHT22;319;48.764;9.174;2024-02-23T20:48:14;7.10;99.90
674;DHT22;319;48.764;9.174;2024-02-23T20:50:46;7.10;99.90
674;DHT22;319;48.764;9.174;2024-02-23T20:53:22;7.00;99.90
674;DHT22;319;48.764;9.174;2024-02-23T20:55:54;7.10;99.90
674;DHT22;319;48.764;9.174;2024-02-23T20:59:01;7.10;99.90
674;DHT22;319;48.764;9.174;2024-02-23T21:04:14;7.20;99.90
674;DHT22;319;48.764;9.174;2024-02-23T21:06:42;7.00;99.90
674;DHT22;319;48.764;9.174;2024-02-23T21:14:53;6.90;99.90
674;DHT22;319;48.764;9.174;2024-02-23T21:17:36;7.10;99.90
674;DHT22;319;48.764;9.174;2024-02-23T21:20:12;6.90;99.90
674;DHT22;319;48.764;9.174;2024-02-23T21:30:22;7.30;99.90
674;DHT22;319;48.764;9.174;2024-02-23T21:32:53;7.20;99.90
674;DHT22;319;48.764;9.174;2024-02-23T21:35:26;7.20;99.90
674;DHT22;319;48.764;9.174;2024-02-23T21:47:58;7.00;99.90
674;DHT22;319;48.764;9.174;2024-02-23T21:55:20;7.10;99.90
674;DHT22;319;48.764;9.174;2024-02-23T22:00:17;7.10;99.80
674;DHT22;319;48.764;9.174;2024-02-23T22:05:13;7.00;99.90
674;DHT22;319;48.764;9.174;2024-02-23T22:17:29;6.90;99.90
674;DHT22;319;48.764;9.174;2024-02-23T23:39:02;6.80;99.90
674;DHT22;319;48.764;9.174;2024-02-23T23:44:25;6.80;99.90
674;DHT22;319;48.764;9.174;2024-02-23T23:56:44;6.70;99.90
